Time;durP1;ratioP1;P1;durP2;ratioP2;P2;SDS_P1;SDS_P2;PMS_P1;PMS_P2;Temp;Humidity;BMP_temperature;BMP_pressure;BME280_temperature;BME280_humidity;BME280_pressure;Samples;Min_cycle;Max_cycle;Signal;HPM_P1;HPM_P2
2024/03/17 17:59:57;;;;;;;;;;;;;;;5.69;60.06;100858.36;107136;1299;544525;-89
2024/03/17 18:03:29;;;;;;;;;;;;;;;5.61;60.07;100853.61;109746;1280;24238;-90
2024/03/17 18:19:02;;;;;;;;;;;;;;;5.47;60.46;100863.60;110263;1269;22461;-88
2024/03/17 18:27:08;;;;;;;;;;;;;;;5.42;61.13;100866.24;110148;1270;22523;-90
2024/03/17 18:30:36;;;;;;;;;;;;;;;5.38;61.14;100864.58;108520;1274;22953;-86
2024/03/17 18:33:27;;;;;;;;;;;;;;;5.32;61.26;100862.59;108410;1274;22499;-85
2024/03/17 18:36:22;;;;;;;;;;;;;;;5.29;61.42;100864.08;108356;1272;24279;-85
2024/03/17 18:39:16;;;;;;;;;;;;;;;5.27;61.71;100868.23;108359;1274;23158;-89
2024/03/17 18:42:10;;;;;;;;;;;;;;;5.24;61.74;100868.85;108171;1273;24171;-84
2024/03/17 18:45:00;;;;;;;;;;;;;;;5.18;61.80;100868.66;108038;1274;23381;-83
2024/03/17 18:47:53;;;;;;;;;;;;;;;5.13;61.99;100877.22;108122;1274;25307;-84
2024/03/17 18:50:43;;;;;;;;;;;;;;;5.11;62.00;100877.90;108094;1273;25550;-82
2024/03/17 18:53:33;;;;;;;;;;;;;;;5.06;62.13;100877.52;108095;1274;22572;-82
2024/03/17 18:56:22;;;;;;;;;;;;;;;5.00;62.17;100872.98;108392;1273;22558;-82
2024/03/17 18:59:14;;;;;;;;;;;;;;;4.94;62.31;100875.39;108311;1274;22506;-82
2024/03/17 19:02:04;;;;;;;;;;;;;;;4.90;62.55;100872.13;108332;1273;22494;-83
2024/03/17 19:04:55;;;;;;;;;;;;;;;4.88;62.77;100870.23;108486;1273;22647;-84
2024/03/17 19:07:47;;;;;;;;;;;;;;;4.87;62.65;100869.35;108743;1273;23130;-84
2024/03/17 19:10:38;;;;;;;;;;;;;;;4.85;62.64;100872.88;108361;1273;22504;-84
2024/03/17 19:13:29;;;;;;;;;;;;;;;4.80;62.64;100872.04;108393;1263;22530;-84
2024/03/17 19:16:19;;;;;;;;;;;;;;;4.78;62.86;100877.44;107969;1274;22611;-83
2024/03/17 19:19:09;;;;;;;;;;;;;;;4.75;62.89;100876.48;107757;1278;22531;-83
2024/03/17 19:22:05;;;;;;;;;;;;;;;4.69;63.05;100876.19;107915;1278;25375;-83
2024/03/17 19:24:55;;;;;;;;;;;;;;;4.68;63.13;100874.71;107907;1278;23179;-80
2024/03/17 19:27:45;;;;;;;;;;;;;;;4.63;63.04;100873.77;107930;1278;22547;-81
2024/03/17 19:30:36;;;;;;;;;;;;;;;4.57;63.17;100870.33;107910;1276;22554;-82
2024/03/17 19:33:26;;;;;;;;;;;;;;;4.53;63.34;100870.80;107691;1278;22541;-82
2024/03/17 19:36:15;;;;;;;;;;;;;;;4.52;63.59;100867.11;107734;1279;22674;-83
2024/03/17 19:39:07;;;;;;;;;;;;;;;4.48;63.52;100871.69;107787;1274;22741;-83
2024/03/17 19:42:00;;;;;;;;;;;;;;;4.45;63.55;100877.75;107642;1279;22627;-84
2024/03/17 19:44:49;;;;;;;;;;;;;;;4.42;63.73;100879.61;107857;1276;22587;-83
2024/03/17 19:47:39;;;;;;;;;;;;;;;4.42;64.07;100877.65;107891;1278;22514;-86
2024/03/17 19:50:31;;;;;;;;;;;;;;;4.40;63.81;100878.84;107674;1279;22529;-85
2024/03/17 19:53:21;;;;;;;;;;;;;;;4.37;63.89;100879.94;107510;1279;23756;-83
2024/03/17 19:56:13;;;;;;;;;;;;;;;4.35;64.00;100881.88;107662;1279;25219;-83
2024/03/17 19:59:03;;;;;;;;;;;;;;;4.33;63.99;100884.35;107685;1279;24308;-84
2024/03/17 20:01:54;;;;;;;;;;;;;;;4.34;63.96;100881.58;107674;1279;23044;-84
2024/03/17 20:05:06;;;;;;;;;;;;;;;4.34;64.17;100881.80;107899;1279;22517;-88
2024/03/17 20:07:59;;;;;;;;;;;;;;;4.35;64.37;100877.43;108127;1279;22981;-85
2024/03/17 20:10:53;;;;;;;;;;;;;;;4.36;64.36;100878.62;107750;1279;22926;-85
2024/03/17 20:13:43;;;;;;;;;;;;;;;4.34;64.36;100877.55;107635;1279;25353;-83
2024/03/17 20:16:37;;;;;;;;;;;;;;;4.33;64.41;100877.89;107958;1279;22644;-85
2024/03/17 20:19:33;;;;;;;;;;;;;;;4.28;64.44;100871.34;107937;1279;22593;-85
2024/03/17 20:22:26;;;;;;;;;;;;;;;4.27;64.70;100874.89;107766;1279;24633;-84
2024/03/17 20:25:16;;;;;;;;;;;;;;;4.28;64.73;100875.75;108570;1279;22896;-88
2024/03/17 20:28:15;;;;;;;;;;;;;;;4.28;64.81;100876.94;108375;1278;23180;-87
2024/03/17 20:31:08;;;;;;;;;;;;;;;4.30;64.79;100873.19;108425;1276;22509;-87
2024/03/17 20:34:09;;;;;;;;;;;;;;;4.28;64.74;100868.89;108504;1276;24352;-88
2024/03/17 20:37:07;;;;;;;;;;;;;;;4.28;64.88;100867.05;108228;1278;23375;-85
2024/03/17 20:39:59;;;;;;;;;;;;;;;4.27;64.90;100867.55;107980;1278;22528;-86
2024/03/17 20:42:55;;;;;;;;;;;;;;;4.28;65.01;100870.63;107859;1271;22644;-84
2024/03/17 20:45:49;;;;;;;;;;;;;;;4.29;65.27;100876.06;108116;1276;23309;-87
2024/03/17 20:48:45;;;;;;;;;;;;;;;4.27;65.38;100877.35;108230;1270;23931;-86
2024/03/17 20:51:37;;;;;;;;;;;;;;;4.22;65.20;100876.96;107693;1278;24206;-86
2024/03/17 20:54:32;;;;;;;;;;;;;;;4.20;65.47;100874.08;108440;1270;22993;-90
2024/03/17 20:57:53;;;;;;;;;;;;;;;4.19;65.55;100870.15;107678;1271;24262;-83
2024/03/17 21:00:47;;;;;;;;;;;;;;;4.15;65.47;100869.98;107612;1277;24822;-85
2024/03/17 21:03:44;;;;;;;;;;;;;;;4.11;65.49;100868.30;108146;1271;22434;-86
2024/03/17 21:06:37;;;;;;;;;;;;;;;4.09;65.59;100868.73;107828;1276;22534;-88
2024/03/17 21:09:49;;;;;;;;;;;;;;;4.09;65.64;100863.44;107615;1276;22527;-83
2024/03/17 21:12:53;;;;;;;;;;;;;;;4.09;65.87;100864.00;107877;1276;22610;-88
2024/03/17 21:15:47;;;;;;;;;;;;;;;4.08;65.76;100859.11;107767;1277;22578;-83
2024/03/17 21:18:37;;;;;;;;;;;;;;;4.05;65.67;100860.10;107810;1277;24377;-83
2024/03/17 21:21:29;;;;;;;;;;;;;;;4.05;65.73;100857.90;107543;1277;22816;-86
2024/03/17 21:24:21;;;;;;;;;;;;;;;4.03;65.81;100856.27;107631;1278;22648;-87
2024/03/17 21:27:16;;;;;;;;;;;;;;;3.98;65.87;100850.11;107564;1277;22593;-85
2024/03/17 21:30:13;;;;;;;;;;;;;;;3.96;65.83;100845.65;107793;1274;25253;-87
2024/03/17 21:33:17;;;;;;;;;;;;;;;3.97;65.79;100842.55;108089;1276;25372;-85
2024/03/17 21:36:13;;;;;;;;;;;;;;;3.95;65.90;100847.80;107588;1278;24347;-86
2024/03/17 21:39:11;;;;;;;;;;;;;;;3.95;65.78;100845.05;107552;1278;22911;-84
2024/03/17 21:42:10;;;;;;;;;;;;;;;3.92;65.78;100847.69;107525;1277;23344;-84
2024/03/17 21:45:03;;;;;;;;;;;;;;;3.90;65.99;100845.21;107476;1277;24377;-83
2024/03/17 21:47:53;;;;;;;;;;;;;;;3.88;66.16;100845.00;107528;1277;22506;-84
2024/03/17 21:50:45;;;;;;;;;;;;;;;3.88;66.38;100843.48;107525;1277;22548;-83
2024/03/17 21:53:35;;;;;;;;;;;;;;;3.85;66.10;100845.04;107645;1277;25317;-82
2024/03/17 21:56:26;;;;;;;;;;;;;;;3.79;66.04;100843.80;107580;1277;25272;-83
2024/03/17 21:59:17;;;;;;;;;;;;;;;3.77;66.38;100844.77;107731;1277;25245;-81
2024/03/17 22:02:07;;;;;;;;;;;;;;;3.74;66.42;100849.23;107651;1277;22531;-82
2024/03/17 22:04:57;;;;;;;;;;;;;;;3.71;66.34;100845.66;107484;1278;22622;-84
2024/03/17 22:07:51;;;;;;;;;;;;;;;3.69;66.83;100849.94;107390;1271;25279;-83
2024/03/17 22:10:41;;;;;;;;;;;;;;;3.62;66.98;100845.95;107528;1277;22660;-84
2024/03/17 22:13:31;;;;;;;;;;;;;;;3.57;66.97;100847.29;107560;1277;22525;-82
2024/03/17 22:16:21;;;;;;;;;;;;;;;3.55;66.87;100847.95;107671;1277;25247;-85
2024/03/17 22:19:10;;;;;;;;;;;;;;;3.55;67.04;100850.08;107681;1277;24002;-86
2024/03/17 22:22:00;;;;;;;;;;;;;;;3.51;66.89;100846.19;107504;1277;22614;-85
2024/03/17 22:24:51;;;;;;;;;;;;;;;3.51;67.02;100850.06;107476;1277;22455;-85
2024/03/17 22:27:42;;;;;;;;;;;;;;;3.52;67.09;100845.23;107717;1277;22606;-87
2024/03/17 22:30:35;;;;;;;;;;;;;;;3.56;67.22;100845.17;107751;1277;24237;-86
2024/03/17 22:33:34;;;;;;;;;;;;;;;3.55;66.96;100842.73;108042;1277;25395;-86
2024/03/17 22:36:26;;;;;;;;;;;;;;;3.53;67.09;100844.19;107601;1277;25220;-88
2024/03/17 22:39:17;;;;;;;;;;;;;;;3.52;67.26;100842.17;107610;1277;22693;-85
2024/03/17 22:42:08;;;;;;;;;;;;;;;3.49;67.28;100844.65;107529;1270;22658;-84
2024/03/17 22:44:58;;;;;;;;;;;;;;;3.49;67.48;100844.96;107658;1274;23437;-83
2024/03/17 22:47:47;;;;;;;;;;;;;;;3.48;67.80;100838.43;108042;1273;22544;-82
2024/03/17 22:50:37;;;;;;;;;;;;;;;3.46;67.65;100841.06;107743;1270;22509;-83
2024/03/17 22:53:28;;;;;;;;;;;;;;;3.43;67.79;100844.58;107428;1277;23772;-83
2024/03/17 22:56:17;;;;;;;;;;;;;;;3.37;68.02;100840.58;107610;1277;25377;-82
2024/03/17 22:59:09;;;;;;;;;;;;;;;3.34;68.01;100842.59;107495;1277;22651;-83
2024/03/17 23:01:58;;;;;;;;;;;;;;;3.33;68.27;100843.30;107556;1277;22539;-83
2024/03/17 23:04:48;;;;;;;;;;;;;;;3.34;68.42;100838.23;107621;1276;22667;-85
2024/03/17 23:07:38;;;;;;;;;;;;;;;3.34;68.36;100831.69;108028;1277;25374;-84
2024/03/17 23:10:31;;;;;;;;;;;;;;;3.36;68.47;100836.30;108074;1277;25265;-84
2024/03/17 23:13:22;;;;;;;;;;;;;;;3.36;68.44;100831.59;108168;1271;22621;-85
2024/03/17 23:16:12;;;;;;;;;;;;;;;3.38;68.61;100836.22;107994;1277;24218;-85
2024/03/17 23:19:03;;;;;;;;;;;;;;;3.39;68.61;100837.06;107998;1277;22576;-84
2024/03/17 23:21:53;;;;;;;;;;;;;;;3.37;68.76;100838.04;108087;1277;24802;-85
2024/03/17 23:24:43;;;;;;;;;;;;;;;3.37;69.05;100833.55;108217;1262;22564;-85
2024/03/17 23:27:35;;;;;;;;;;;;;;;3.32;68.80;100828.09;108114;1277;22515;-84
2024/03/17 23:30:27;;;;;;;;;;;;;;;3.28;68.76;100824.66;108294;1276;22584;-83
2024/03/17 23:33:18;;;;;;;;;;;;;;;3.28;68.68;100828.85;108020;1277;22586;-84
2024/03/17 23:36:09;;;;;;;;;;;;;;;3.26;68.35;100828.39;107989;1277;23215;-84
2024/03/17 23:38:59;;;;;;;;;;;;;;;3.26;68.14;100827.63;107865;1277;25467;-83
2024/03/17 23:41:49;;;;;;;;;;;;;;;3.24;68.06;100823.95;107810;1278;25356;-83
2024/03/17 23:44:38;;;;;;;;;;;;;;;3.23;67.92;100825.45;107852;1277;22606;-83
2024/03/17 23:47:30;;;;;;;;;;;;;;;3.18;67.59;100824.52;107748;1277;22499;-84
2024/03/17 23:50:24;;;;;;;;;;;;;;;3.16;67.67;100819.80;107839;1277;22513;-84
2024/03/17 23:53:15;;;;;;;;;;;;;;;3.16;67.72;100817.52;108040;1277;25559;-84
2024/03/17 23:56:10;;;;;;;;;;;;;;;3.13;67.68;100814.79;107746;1277;22529;-84
2024/03/17 23:59:02;;;;;;;;;;;;;;;3.11;67.75;100812.14;107915;1277;22643;-85
